sensor_id;sensor_type;location;lat;lon;timestamp;temperature;humidity
66920;DHT22;53831;52.090;17.026;2023-04-24T00:00:16;12.40;99.90
66920;DHT22;53831;52.090;17.026;2023-04-24T00:01:17;12.40;99.90
66920;DHT22;53831;52.090;17.026;2023-04-24T00:02:19;12.40;99.90
66920;DHT22;53831;52.090;17.026;2023-04-24T00:03:20;12.40;99.90
66920;DHT22;53831;52.090;17.026;2023-04-24T00:04:21;12.40;99.90
66920;DHT22;53831;52.090;17.026;2023-04-24T00:05:22;12.40;99.90
66920;DHT22;53831;52.090;17.026;2023-04-24T00:06:22;12.40;99.90
66920;DHT22;53831;52.090;17.026;2023-04-24T00:07:23;12.40;99.90
66920;DHT22;53831;52.090;17.026;2023-04-24T00:08:24;12.40;99.90
66920;DHT22;53831;52.090;17.026;2023-04-24T00:09:25;12.40;99.90
66920;DHT22;53831;52.090;17.026;2023-04-24T00:10:26;12.40;99.90
66920;DHT22;53831;52.090;17.026;2023-04-24T00:11:27;12.30;99.90
66920;DHT22;53831;52.090;17.026;2023-04-24T00:12:27;12.30;99.90
66920;DHT22;53831;52.090;17.026;2023-04-24T00:13:28;12.30;99.90
66920;DHT22;53831;52.090;17.026;2023-04-24T00:14:29;12.30;99.90
66920;DHT22;53831;52.090;17.026;2023-04-24T00:15:29;12.40;99.90
66920;DHT22;53831;52.090;17.026;2023-04-24T00:16:31;12.30;99.90
66920;DHT22;53831;52.090;17.026;2023-04-24T00:17:31;12.40;99.90
66920;DHT22;53831;52.090;17.026;2023-04-24T00:18:32;12.40;99.90
66920;DHT22;53831;52.090;17.026;2023-04-24T00:19:33;12.40;99.90
66920;DHT22;53831;52.090;17.026;2023-04-24T00:20:33;12.40;99.90
66920;DHT22;53831;52.090;17.026;2023-04-24T00:21:35;12.40;99.90
66920;DHT22;53831;52.090;17.026;2023-04-24T00:22:36;12.40;99.90
66920;DHT22;53831;52.090;17.026;2023-04-24T00:23:36;12.40;99.90
66920;DHT22;53831;52.090;17.026;2023-04-24T00:24:37;12.40;99.90
66920;DHT22;53831;52.090;17.026;2023-04-24T00:25:38;12.40;99.90
66920;DHT22;53831;52.090;17.026;2023-04-24T00:26:38;12.50;99.90
66920;DHT22;53831;52.090;17.026;2023-04-24T00:27:39;12.50;99.90
66920;DHT22;53831;52.090;17.026;2023-04-24T00:28:40;12.50;99.90
66920;DHT22;53831;52.090;17.026;2023-04-24T00:29:40;12.50;99.90
66920;DHT22;53831;52.090;17.026;2023-04-24T00:30:41;12.50;99.90
66920;DHT22;53831;52.090;17.026;2023-04-24T00:31:42;12.40;99.90
66920;DHT22;53831;52.090;17.026;2023-04-24T00:32:42;12.40;99.90
66920;DHT22;53831;52.090;17.026;2023-04-24T00:33:43;12.40;99.90
66920;DHT22;53831;52.090;17.026;2023-04-24T00:34:43;12.50;99.90
66920;DHT22;53831;52.090;17.026;2023-04-24T00:35:44;12.50;99.90
66920;DHT22;53831;52.090;17.026;2023-04-24T00:36:45;12.50;99.90
66920;DHT22;53831;52.090;17.026;2023-04-24T00:37:46;12.50;99.90
66920;DHT22;53831;52.090;17.026;2023-04-24T00:38:47;12.40;99.90
66920;DHT22;53831;52.090;17.026;2023-04-24T00:39:47;12.40;99.90
66920;DHT22;53831;52.090;17.026;2023-04-24T00:40:48;12.40;99.90
66920;DHT22;53831;52.090;17.026;2023-04-24T00:41:50;12.40;99.90
66920;DHT22;53831;52.090;17.026;2023-04-24T00:42:51;12.40;99.90
66920;DHT22;53831;52.090;17.026;2023-04-24T00:43:52;12.40;99.90
66920;DHT22;53831;52.090;17.026;2023-04-24T00:44:53;12.30;99.90
66920;DHT22;53831;52.090;17.026;2023-04-24T00:45:54;12.30;99.90
66920;DHT22;53831;52.090;17.026;2023-04-24T00:46:55;12.40;99.90
66920;DHT22;53831;52.090;17.026;2023-04-24T00:47:56;12.40;99.90
66920;DHT22;53831;52.090;17.026;2023-04-24T00:48:57;12.30;99.90
66920;DHT22;53831;52.090;17.026;2023-04-24T00:50:02;12.30;99.90
66920;DHT22;53831;52.090;17.026;2023-04-24T00:51:03;12.30;99.90
66920;DHT22;53831;52.090;17.026;2023-04-24T00:52:04;12.30;99.90
66920;DHT22;53831;52.090;17.026;2023-04-24T00:53:07;12.20;99.90
66920;DHT22;53831;52.090;17.026;2023-04-24T00:54:08;12.30;99.90
66920;DHT22;53831;52.090;17.026;2023-04-24T00:55:09;12.30;99.90
66920;DHT22;53831;52.090;17.026;2023-04-24T00:56:10;12.20;99.90
66920;DHT22;53831;52.090;17.026;2023-04-24T00:57:11;12.30;99.90
66920;DHT22;53831;52.090;17.026;2023-04-24T00:58:12;12.30;99.90
66920;DHT22;53831;52.090;17.026;2023-04-24T00:59:13;12.30;99.90
66920;DHT22;53831;52.090;17.026;2023-04-24T01:00:16;12.20;99.90
66920;DHT22;53831;52.090;17.026;2023-04-24T01:01:20;12.20;99.90
66920;DHT22;53831;52.090;17.026;2023-04-24T01:02:21;12.20;99.90
66920;DHT22;53831;52.090;17.026;2023-04-24T01:03:24;12.20;99.90
66920;DHT22;53831;52.090;17.026;2023-04-24T01:04:26;12.20;99.90
66920;DHT22;53831;52.090;17.026;2023-04-24T01:05:27;12.20;99.90
66920;DHT22;53831;52.090;17.026;2023-04-24T01:06:28;12.30;99.90
66920;DHT22;53831;52.090;17.026;2023-04-24T01:07:31;12.30;99.90
66920;DHT22;53831;52.090;17.026;2023-04-24T01:08:32;12.20;99.90
66920;DHT22;53831;52.090;17.026;2023-04-24T01:09:33;12.20;99.90
66920;DHT22;53831;52.090;17.026;2023-04-24T01:10:33;12.20;99.90
66920;DHT22;53831;52.090;17.026;2023-04-24T01:11:34;12.10;99.90
66920;DHT22;53831;52.090;17.026;2023-04-24T01:12:35;12.10;99.90
66920;DHT22;53831;52.090;17.026;2023-04-24T01:13:37;12.10;99.90
66920;DHT22;53831;52.090;17.026;2023-04-24T01:14:38;12.10;99.90
66920;DHT22;53831;52.090;17.026;2023-04-24T01:15:38;12.00;99.90
66920;DHT22;53831;52.090;17.026;2023-04-24T01:16:39;12.00;99.90
66920;DHT22;53831;52.090;17.026;2023-04-24T01:17:40;12.10;99.90
66920;DHT22;53831;52.090;17.026;2023-04-24T01:18:40;12.00;99.90
66920;DHT22;53831;52.090;17.026;2023-04-24T01:19:41;12.10;99.90
66920;DHT22;53831;52.090;17.026;2023-04-24T01:20:44;12.10;99.90
66920;DHT22;53831;52.090;17.026;2023-04-24T01:21:45;12.10;99.90
66920;DHT22;53831;52.090;17.026;2023-04-24T01:22:47;12.10;99.90
66920;DHT22;53831;52.090;17.026;2023-04-24T01:23:49;12.20;99.90
66920;DHT22;53831;52.090;17.026;2023-04-24T01:24:52;12.20;99.90
66920;DHT22;53831;52.090;17.026;2023-04-24T01:25:53;12.30;99.90
66920;DHT22;53831;52.090;17.026;2023-04-24T01:26:54;12.40;99.90
66920;DHT22;53831;52.090;17.026;2023-04-24T01:27:55;12.40;99.90
66920;DHT22;53831;52.090;17.026;2023-04-24T01:28:56;12.50;99.90
66920;DHT22;53831;52.090;17.026;2023-04-24T01:29:56;12.50;99.90
66920;DHT22;53831;52.090;17.026;2023-04-24T01:33:03;12.60;99.90
66920;DHT22;53831;52.090;17.026;2023-04-24T01:35:05;12.60;99.90
66920;DHT22;53831;52.090;17.026;2023-04-24T01:37:06;12.60;99.90
66920;DHT22;53831;52.090;17.026;2023-04-24T01:39:08;12.60;99.90
66920;DHT22;53831;52.090;17.026;2023-04-24T01:41:09;12.50;99.90
66920;DHT22;53831;52.090;17.026;2023-04-24T01:43:11;12.50;99.90
66920;DHT22;53831;52.090;17.026;2023-04-24T01:45:12;12.50;99.90
66920;DHT22;53831;52.090;17.026;2023-04-24T01:47:13;12.40;99.90
66920;DHT22;53831;52.090;17.026;2023-04-24T01:49:14;12.40;99.90
66920;DHT22;53831;52.090;17.026;2023-04-24T01:51:15;12.40;99.90
66920;DHT22;53831;52.090;17.026;2023-04-24T01:53:17;12.40;99.90
66920;DHT22;53831;52.090;17.026;2023-04-24T01:55:18;12.40;99.90
66920;DHT22;53831;52.090;17.026;2023-04-24T01:57:19;12.40;99.90
66920;DHT22;53831;52.090;17.026;2023-04-24T01:59:21;12.40;99.90
66920;DHT22;53831;52.090;17.026;2023-04-24T02:01:25;12.40;99.90
66920;DHT22;53831;52.090;17.026;2023-04-24T02:03:26;12.40;99.90
66920;DHT22;53831;52.090;17.026;2023-04-24T02:05:28;12.20;99.90
66920;DHT22;53831;52.090;17.026;2023-04-24T02:07:29;12.30;99.90
66920;DHT22;53831;52.090;17.026;2023-04-24T02:09:30;12.20;99.90
66920;DHT22;53831;52.090;17.026;2023-04-24T02:11:32;12.20;99.90
66920;DHT22;53831;52.090;17.026;2023-04-24T02:13:33;12.20;99.90
66920;DHT22;53831;52.090;17.026;2023-04-24T02:15:34;12.20;99.90
66920;DHT22;53831;52.090;17.026;2023-04-24T02:17:36;12.20;99.90
66920;DHT22;53831;52.090;17.026;2023-04-24T02:19:37;12.20;99.90
66920;DHT22;53831;52.090;17.026;2023-04-24T02:21:38;12.20;99.90
66920;DHT22;53831;52.090;17.026;2023-04-24T02:23:40;12.20;99.90
66920;DHT22;53831;52.090;17.026;2023-04-24T02:25:41;12.20;99.90
66920;DHT22;53831;52.090;17.026;2023-04-24T02:27:43;12.20;99.90
66920;DHT22;53831;52.090;17.026;2023-04-24T02:29:44;12.30;99.90
66920;DHT22;53831;52.090;17.026;2023-04-24T02:31:45;12.20;99.90
66920;DHT22;53831;52.090;17.026;2023-04-24T02:33:47;12.30;99.90
66920;DHT22;53831;52.090;17.026;2023-04-24T02:35:48;12.30;99.90
66920;DHT22;53831;52.090;17.026;2023-04-24T02:37:49;12.20;99.90
66920;DHT22;53831;52.090;17.026;2023-04-24T02:39:50;12.30;99.90
66920;DHT22;53831;52.090;17.026;2023-04-24T02:41:52;12.30;99.90
66920;DHT22;53831;52.090;17.026;2023-04-24T02:43:53;12.30;99.90
66920;DHT22;53831;52.090;17.026;2023-04-24T02:45:54;12.20;99.90
66920;DHT22;53831;52.090;17.026;2023-04-24T02:47:56;12.20;99.90
66920;DHT22;53831;52.090;17.026;2023-04-24T02:49:57;12.20;99.90
66920;DHT22;53831;52.090;17.026;2023-04-24T02:51:59;12.10;99.90
66920;DHT22;53831;52.090;17.026;2023-04-24T02:54:00;12.10;99.90
66920;DHT22;53831;52.090;17.026;2023-04-24T02:56:01;12.00;99.90
66920;DHT22;53831;52.090;17.026;2023-04-24T02:58:03;12.00;99.90
66920;DHT22;53831;52.090;17.026;2023-04-24T03:00:04;11.90;99.90
66920;DHT22;53831;52.090;17.026;2023-04-24T03:02:05;11.90;99.90
66920;DHT22;53831;52.090;17.026;2023-04-24T03:04:07;11.90;99.90
66920;DHT22;53831;52.090;17.026;2023-04-24T03:06:08;11.90;99.90
66920;DHT22;53831;52.090;17.026;2023-04-24T03:08:09;11.90;99.90
66920;DHT22;53831;52.090;17.026;2023-04-24T03:10:11;11.90;99.90
66920;DHT22;53831;52.090;17.026;2023-04-24T03:12:12;11.90;99.90
66920;DHT22;53831;52.090;17.026;2023-04-24T03:14:13;11.90;99.90
66920;DHT22;53831;52.090;17.026;2023-04-24T03:16:15;11.80;99.90
66920;DHT22;53831;52.090;17.026;2023-04-24T03:18:16;11.80;99.90
66920;DHT22;53831;52.090;17.026;2023-04-24T03:20:18;11.80;99.90
66920;DHT22;53831;52.090;17.026;2023-04-24T03:22:19;11.70;99.90
66920;DHT22;53831;52.090;17.026;2023-04-24T03:24:21;11.70;99.90
66920;DHT22;53831;52.090;17.026;2023-04-24T03:26:21;11.70;99.90
66920;DHT22;53831;52.090;17.026;2023-04-24T03:28:26;11.60;99.90
66920;DHT22;53831;52.090;17.026;2023-04-24T03:30:27;11.50;99.90
66920;DHT22;53831;52.090;17.026;2023-04-24T03:32:28;11.50;99.90
66920;DHT22;53831;52.090;17.026;2023-04-24T03:34:30;11.40;99.90
66920;DHT22;53831;52.090;17.026;2023-04-24T03:36:31;11.30;99.90
66920;DHT22;53831;52.090;17.026;2023-04-24T03:38:32;11.20;99.90
66920;DHT22;53831;52.090;17.026;2023-04-24T03:40:34;11.20;99.90
66920;DHT22;53831;52.090;17.026;2023-04-24T03:42:41;11.10;99.90
66920;DHT22;53831;52.090;17.026;2023-04-24T03:44:42;11.20;99.90
66920;DHT22;53831;52.090;17.026;2023-04-24T03:46:44;11.10;99.90
66920;DHT22;53831;52.090;17.026;2023-04-24T03:48:45;11.10;99.90
66920;DHT22;53831;52.090;17.026;2023-04-24T03:50:47;11.10;99.90
66920;DHT22;53831;52.090;17.026;2023-04-24T03:52:48;11.10;99.90
66920;DHT22;53831;52.090;17.026;2023-04-24T03:54:49;11.00;99.90
66920;DHT22;53831;52.090;17.026;2023-04-24T03:56:50;11.00;99.90
66920;DHT22;53831;52.090;17.026;2023-04-24T03:59:00;10.90;99.90
66920;DHT22;53831;52.090;17.026;2023-04-24T04:01:02;10.90;99.90
66920;DHT22;53831;52.090;17.026;2023-04-24T04:03:03;10.90;99.90
66920;DHT22;53831;52.090;17.026;2023-04-24T04:05:04;10.90;99.90
66920;DHT22;53831;52.090;17.026;2023-04-24T04:07:06;10.90;99.90
66920;DHT22;53831;52.090;17.026;2023-04-24T04:09:07;10.90;99.90
66920;DHT22;53831;52.090;17.026;2023-04-24T04:11:08;10.90;99.90
66920;DHT22;53831;52.090;17.026;2023-04-24T04:13:10;11.00;99.90
66920;DHT22;53831;52.090;17.026;2023-04-24T04:15:11;11.00;99.90
66920;DHT22;53831;52.090;17.026;2023-04-24T04:17:12;11.00;99.90
66920;DHT22;53831;52.090;17.026;2023-04-24T04:19:14;11.00;99.90
66920;DHT22;53831;52.090;17.026;2023-04-24T04:21:15;11.20;99.90
66920;DHT22;53831;52.090;17.026;2023-04-24T04:23:19;11.20;99.90
66920;DHT22;53831;52.090;17.026;2023-04-24T04:25:20;11.30;99.90
66920;DHT22;53831;52.090;17.026;2023-04-24T04:27:21;11.40;99.90
66920;DHT22;53831;52.090;17.026;2023-04-24T04:29:23;11.40;99.90
66920;DHT22;53831;52.090;17.026;2023-04-24T04:31:24;11.50;99.90
66920;DHT22;53831;52.090;17.026;2023-04-24T04:33:25;11.60;99.90
66920;DHT22;53831;52.090;17.026;2023-04-24T04:35:27;11.70;99.90
66920;DHT22;53831;52.090;17.026;2023-04-24T04:37:34;11.80;99.90
66920;DHT22;53831;52.090;17.026;2023-04-24T04:39:39;11.80;99.90
66920;DHT22;53831;52.090;17.026;2023-04-24T04:41:40;11.90;99.90
66920;DHT22;53831;52.090;17.026;2023-04-24T04:43:41;11.90;99.90
66920;DHT22;53831;52.090;17.026;2023-04-24T04:45:43;12.00;99.90
66920;DHT22;53831;52.090;17.026;2023-04-24T04:47:44;12.10;99.90
66920;DHT22;53831;52.090;17.026;2023-04-24T04:49:13;12.10;99.90
66920;DHT22;53831;52.090;17.026;2023-04-24T04:50:17;12.20;99.90
66920;DHT22;53831;52.090;17.026;2023-04-24T04:51:20;12.20;99.90
66920;DHT22;53831;52.090;17.026;2023-04-24T04:52:21;12.20;99.90
66920;DHT22;53831;52.090;17.026;2023-04-24T04:53:27;12.30;99.90
66920;DHT22;53831;52.090;17.026;2023-04-24T04:54:27;12.40;99.90
66920;DHT22;53831;52.090;17.026;2023-04-24T04:55:28;12.40;99.90
66920;DHT22;53831;52.090;17.026;2023-04-24T04:56:40;12.40;99.90
66920;DHT22;53831;52.090;17.026;2023-04-24T04:57:40;12.50;99.90
66920;DHT22;53831;52.090;17.026;2023-04-24T04:58:41;12.50;99.90
66920;DHT22;53831;52.090;17.026;2023-04-24T04:59:45;12.60;99.90
66920;DHT22;53831;52.090;17.026;2023-04-24T05:00:50;12.60;99.90
66920;DHT22;53831;52.090;17.026;2023-04-24T05:01:56;12.70;99.90
66920;DHT22;53831;52.090;17.026;2023-04-24T05:02:57;12.70;99.90
66920;DHT22;53831;52.090;17.026;2023-04-24T05:03:57;12.80;99.90
66920;DHT22;53831;52.090;17.026;2023-04-24T05:04:58;12.80;99.90
66920;DHT22;53831;52.090;17.026;2023-04-24T05:05:59;12.90;99.90
66920;DHT22;53831;52.090;17.026;2023-04-24T05:07:00;13.00;99.90
66920;DHT22;53831;52.090;17.026;2023-04-24T05:08:03;13.10;99.90
66920;DHT22;53831;52.090;17.026;2023-04-24T05:09:03;13.20;99.90
66920;DHT22;53831;52.090;17.026;2023-04-24T05:10:10;13.30;99.90
66920;DHT22;53831;52.090;17.026;2023-04-24T05:11:10;13.30;99.90
66920;DHT22;53831;52.090;17.026;2023-04-24T05:12:12;13.40;99.90
66920;DHT22;53831;52.090;17.026;2023-04-24T05:13:18;13.50;99.90
66920;DHT22;53831;52.090;17.026;2023-04-24T05:14:18;13.50;99.90
66920;DHT22;53831;52.090;17.026;2023-04-24T05:15:20;13.60;99.90
66920;DHT22;53831;52.090;17.026;2023-04-24T05:16:20;13.60;99.90
66920;DHT22;53831;52.090;17.026;2023-04-24T05:17:22;13.60;99.90
66920;DHT22;53831;52.090;17.026;2023-04-24T05:18:24;13.60;99.90
66920;DHT22;53831;52.090;17.026;2023-04-24T05:19:24;13.60;99.90
66920;DHT22;53831;52.090;17.026;2023-04-24T05:20:25;13.70;99.90
66920;DHT22;53831;52.090;17.026;2023-04-24T05:21:26;13.70;99.90
66920;DHT22;53831;52.090;17.026;2023-04-24T05:22:27;13.80;99.90
66920;DHT22;53831;52.090;17.026;2023-04-24T05:23:28;13.80;99.90
66920;DHT22;53831;52.090;17.026;2023-04-24T05:24:29;13.80;99.90
66920;DHT22;53831;52.090;17.026;2023-04-24T05:25:59;13.80;99.90
66920;DHT22;53831;52.090;17.026;2023-04-24T05:27:00;13.70;99.90
66920;DHT22;53831;52.090;17.026;2023-04-24T05:28:06;13.80;99.90
66920;DHT22;53831;52.090;17.026;2023-04-24T05:29:07;13.90;99.90
66920;DHT22;53831;52.090;17.026;2023-04-24T05:30:08;13.80;99.90
66920;DHT22;53831;52.090;17.026;2023-04-24T05:31:09;13.90;99.90
66920;DHT22;53831;52.090;17.026;2023-04-24T05:32:10;13.90;99.90
66920;DHT22;53831;52.090;17.026;2023-04-24T05:33:11;13.90;99.90
66920;DHT22;53831;52.090;17.026;2023-04-24T05:34:13;13.90;99.90
66920;DHT22;53831;52.090;17.026;2023-04-24T05:35:17;14.00;99.90
66920;DHT22;53831;52.090;17.026;2023-04-24T05:36:19;14.10;99.90
66920;DHT22;53831;52.090;17.026;2023-04-24T05:37:20;14.10;99.90
66920;DHT22;53831;52.090;17.026;2023-04-24T05:38:21;14.20;99.90
66920;DHT22;53831;52.090;17.026;2023-04-24T05:39:22;14.20;99.90
66920;DHT22;53831;52.090;17.026;2023-04-24T05:40:22;14.30;99.90
66920;DHT22;53831;52.090;17.026;2023-04-24T05:41:23;14.30;99.90
66920;DHT22;53831;52.090;17.026;2023-04-24T05:42:24;14.30;99.90
66920;DHT22;53831;52.090;17.026;2023-04-24T05:43:25;14.40;99.90
66920;DHT22;53831;52.090;17.026;2023-04-24T05:44:26;14.40;99.90
66920;DHT22;53831;52.090;17.026;2023-04-24T05:45:26;14.50;99.90
66920;DHT22;53831;52.090;17.026;2023-04-24T05:46:27;14.50;99.90
66920;DHT22;53831;52.090;17.026;2023-04-24T05:47:29;14.50;99.90
66920;DHT22;53831;52.090;17.026;2023-04-24T05:48:30;14.60;99.90
66920;DHT22;53831;52.090;17.026;2023-04-24T05:49:31;14.60;99.90
66920;DHT22;53831;52.090;17.026;2023-04-24T05:50:32;14.60;99.90
66920;DHT22;53831;52.090;17.026;2023-04-24T05:51:32;14.70;99.90
66920;DHT22;53831;52.090;17.026;2023-04-24T05:52:33;14.70;99.90
66920;DHT22;53831;52.090;17.026;2023-04-24T05:53:34;14.70;99.90
66920;DHT22;53831;52.090;17.026;2023-04-24T05:54:35;14.70;99.90
66920;DHT22;53831;52.090;17.026;2023-04-24T05:56:37;14.70;99.90
66920;DHT22;53831;52.090;17.026;2023-04-24T05:58:48;14.80;99.90
66920;DHT22;53831;52.090;17.026;2023-04-24T06:00:49;14.80;99.90
66920;DHT22;53831;52.090;17.026;2023-04-24T06:02:50;14.70;99.90
66920;DHT22;53831;52.090;17.026;2023-04-24T06:04:51;14.70;99.90
66920;DHT22;53831;52.090;17.026;2023-04-24T06:06:53;14.80;99.90
66920;DHT22;53831;52.090;17.026;2023-04-24T06:08:54;14.90;99.90
66920;DHT22;53831;52.090;17.026;2023-04-24T06:10:55;15.00;99.90
66920;DHT22;53831;52.090;17.026;2023-04-24T06:12:57;15.00;99.90
66920;DHT22;53831;52.090;17.026;2023-04-24T06:14:58;15.00;99.90
66920;DHT22;53831;52.090;17.026;2023-04-24T06:16:59;14.90;99.90
66920;DHT22;53831;52.090;17.026;2023-04-24T06:19:01;14.90;99.90
66920;DHT22;53831;52.090;17.026;2023-04-24T06:21:02;14.90;99.90
66920;DHT22;53831;52.090;17.026;2023-04-24T06:23:03;15.00;99.90
66920;DHT22;53831;52.090;17.026;2023-04-24T06:25:05;15.00;99.90
66920;DHT22;53831;52.090;17.026;2023-04-24T06:27:06;15.00;99.90
66920;DHT22;53831;52.090;17.026;2023-04-24T06:29:07;15.10;99.90
66920;DHT22;53831;52.090;17.026;2023-04-24T06:31:09;15.10;99.90
66920;DHT22;53831;52.090;17.026;2023-04-24T06:33:10;15.10;99.90
66920;DHT22;53831;52.090;17.026;2023-04-24T06:35:12;15.10;99.90
66920;DHT22;53831;52.090;17.026;2023-04-24T06:37:13;15.20;99.90
66920;DHT22;53831;52.090;17.026;2023-04-24T06:39:14;15.20;99.90
66920;DHT22;53831;52.090;17.026;2023-04-24T06:41:16;15.20;99.90
66920;DHT22;53831;52.090;17.026;2023-04-24T06:43:17;15.20;99.90
66920;DHT22;53831;52.090;17.026;2023-04-24T06:45:18;15.10;99.90
66920;DHT22;53831;52.090;17.026;2023-04-24T06:47:20;15.20;99.90
66920;DHT22;53831;52.090;17.026;2023-04-24T06:49:21;15.20;99.90
66920;DHT22;53831;52.090;17.026;2023-04-24T06:51:23;15.00;99.90
66920;DHT22;53831;52.090;17.026;2023-04-24T06:53:24;15.10;99.90
66920;DHT22;53831;52.090;17.026;2023-04-24T06:55:25;15.10;99.90
66920;DHT22;53831;52.090;17.026;2023-04-24T06:57:26;15.20;99.90
66920;DHT22;53831;52.090;17.026;2023-04-24T06:59:28;15.20;99.90
66920;DHT22;53831;52.090;17.026;2023-04-24T07:01:29;15.30;99.90
66920;DHT22;53831;52.090;17.026;2023-04-24T07:03:30;15.20;99.90
66920;DHT22;53831;52.090;17.026;2023-04-24T07:05:32;15.40;99.90
66920;DHT22;53831;52.090;17.026;2023-04-24T07:07:33;15.50;99.90
66920;DHT22;53831;52.090;17.026;2023-04-24T07:09:34;15.50;99.90
66920;DHT22;53831;52.090;17.026;2023-04-24T07:11:36;15.40;99.90
66920;DHT22;53831;52.090;17.026;2023-04-24T07:13:37;15.60;99.90
66920;DHT22;53831;52.090;17.026;2023-04-24T07:15:38;16.00;99.90
66920;DHT22;53831;52.090;17.026;2023-04-24T07:17:40;16.30;99.90
66920;DHT22;53831;52.090;17.026;2023-04-24T07:19:41;16.60;99.90
66920;DHT22;53831;52.090;17.026;2023-04-24T07:21:42;16.60;99.90
66920;DHT22;53831;52.090;17.026;2023-04-24T07:23:44;16.50;99.90
66920;DHT22;53831;52.090;17.026;2023-04-24T07:25:45;16.50;99.90
66920;DHT22;53831;52.090;17.026;2023-04-24T07:27:46;16.60;99.90
66920;DHT22;53831;52.090;17.026;2023-04-24T07:29:48;16.40;99.90
66920;DHT22;53831;52.090;17.026;2023-04-24T07:31:49;16.50;99.90
66920;DHT22;53831;52.090;17.026;2023-04-24T07:33:50;16.60;99.90
66920;DHT22;53831;52.090;17.026;2023-04-24T07:35:52;16.70;99.90
66920;DHT22;53831;52.090;17.026;2023-04-24T07:37:53;16.80;99.90
66920;DHT22;53831;52.090;17.026;2023-04-24T07:39:54;16.80;99.90
66920;DHT22;53831;52.090;17.026;2023-04-24T07:41:55;16.90;99.90
66920;DHT22;53831;52.090;17.026;2023-04-24T07:43:57;17.00;99.90
66920;DHT22;53831;52.090;17.026;2023-04-24T07:45:58;16.90;99.90
66920;DHT22;53831;52.090;17.026;2023-04-24T07:47:59;17.20;99.90
66920;DHT22;53831;52.090;17.026;2023-04-24T07:50:01;17.30;99.90
66920;DHT22;53831;52.090;17.026;2023-04-24T07:52:02;17.30;99.90
66920;DHT22;53831;52.090;17.026;2023-04-24T07:54:04;17.40;99.90
66920;DHT22;53831;52.090;17.026;2023-04-24T07:56:05;17.70;99.90
66920;DHT22;53831;52.090;17.026;2023-04-24T07:58:06;17.70;99.90
66920;DHT22;53831;52.090;17.026;2023-04-24T08:00:07;17.70;99.90
66920;DHT22;53831;52.090;17.026;2023-04-24T08:02:09;17.70;99.90
66920;DHT22;53831;52.090;17.026;2023-04-24T08:04:10;17.70;99.90
66920;DHT22;53831;52.090;17.026;2023-04-24T08:06:11;17.70;99.90
66920;DHT22;53831;52.090;17.026;2023-04-24T08:08:13;17.60;99.90
66920;DHT22;53831;52.090;17.026;2023-04-24T08:10:14;17.40;99.90
66920;DHT22;53831;52.090;17.026;2023-04-24T08:12:15;17.20;99.90
66920;DHT22;53831;52.090;17.026;2023-04-24T08:14:17;17.10;99.90
66920;DHT22;53831;52.090;17.026;2023-04-24T08:16:18;17.10;99.90
66920;DHT22;53831;52.090;17.026;2023-04-24T08:18:19;17.10;99.90
66920;DHT22;53831;52.090;17.026;2023-04-24T08:20:21;17.20;99.90
66920;DHT22;53831;52.090;17.026;2023-04-24T08:22:22;17.10;99.90
66920;DHT22;53831;52.090;17.026;2023-04-24T08:24:23;17.00;99.90
66920;DHT22;53831;52.090;17.026;2023-04-24T08:26:25;17.10;99.90
66920;DHT22;53831;52.090;17.026;2023-04-24T08:28:26;17.00;99.90
66920;DHT22;53831;52.090;17.026;2023-04-24T08:30:27;17.00;99.90
66920;DHT22;53831;52.090;17.026;2023-04-24T08:32:29;17.00;99.90
66920;DHT22;53831;52.090;17.026;2023-04-24T08:34:30;17.20;99.90
66920;DHT22;53831;52.090;17.026;2023-04-24T08:36:32;17.40;99.90
66920;DHT22;53831;52.090;17.026;2023-04-24T08:38:33;17.60;99.90
66920;DHT22;53831;52.090;17.026;2023-04-24T08:40:34;17.50;99.90
66920;DHT22;53831;52.090;17.026;2023-04-24T08:42:36;17.20;99.90
66920;DHT22;53831;52.090;17.026;2023-04-24T08:44:37;17.50;99.90
66920;DHT22;53831;52.090;17.026;2023-04-24T08:46:39;17.60;99.90
66920;DHT22;53831;52.090;17.026;2023-04-24T08:48:39;17.50;99.90
66920;DHT22;53831;52.090;17.026;2023-04-24T08:50:41;17.50;99.90
66920;DHT22;53831;52.090;17.026;2023-04-24T08:52:42;17.40;99.90
66920;DHT22;53831;52.090;17.026;2023-04-24T08:54:43;17.70;99.90
66920;DHT22;53831;52.090;17.026;2023-04-24T08:56:45;17.70;99.90
66920;DHT22;53831;52.090;17.026;2023-04-24T08:58:46;17.80;99.90
66920;DHT22;53831;52.090;17.026;2023-04-24T09:00:47;17.70;99.90
66920;DHT22;53831;52.090;17.026;2023-04-24T09:02:49;17.70;99.90
66920;DHT22;53831;52.090;17.026;2023-04-24T09:04:50;17.80;99.90
66920;DHT22;53831;52.090;17.026;2023-04-24T09:06:53;18.00;99.90
66920;DHT22;53831;52.090;17.026;2023-04-24T09:08:53;18.00;99.90
66920;DHT22;53831;52.090;17.026;2023-04-24T09:10:54;17.90;99.90
66920;DHT22;53831;52.090;17.026;2023-04-24T09:12:56;17.80;99.90
66920;DHT22;53831;52.090;17.026;2023-04-24T09:14:57;17.70;99.90
66920;DHT22;53831;52.090;17.026;2023-04-24T09:16:58;17.50;99.90
66920;DHT22;53831;52.090;17.026;2023-04-24T09:19:00;17.20;99.90
66920;DHT22;53831;52.090;17.026;2023-04-24T09:21:02;17.10;99.90
66920;DHT22;53831;52.090;17.026;2023-04-24T09:23:02;17.10;99.90
66920;DHT22;53831;52.090;17.026;2023-04-24T09:25:04;17.20;99.90
66920;DHT22;53831;52.090;17.026;2023-04-24T09:27:05;17.30;99.90
66920;DHT22;53831;52.090;17.026;2023-04-24T09:29:06;17.20;99.90
66920;DHT22;53831;52.090;17.026;2023-04-24T09:31:14;17.30;99.90
66920;DHT22;53831;52.090;17.026;2023-04-24T09:33:15;17.60;99.90
66920;DHT22;53831;52.090;17.026;2023-04-24T09:35:16;17.80;99.90
66920;DHT22;53831;52.090;17.026;2023-04-24T09:37:27;18.10;99.90
66920;DHT22;53831;52.090;17.026;2023-04-24T09:39:27;18.60;99.90
66920;DHT22;53831;52.090;17.026;2023-04-24T09:41:29;18.60;99.90
66920;DHT22;53831;52.090;17.026;2023-04-24T09:43:30;18.70;99.90
66920;DHT22;53831;52.090;17.026;2023-04-24T09:45:35;18.70;99.90
66920;DHT22;53831;52.090;17.026;2023-04-24T09:47:36;18.60;99.90
66920;DHT22;53831;52.090;17.026;2023-04-24T09:49:37;18.80;99.90
66920;DHT22;53831;52.090;17.026;2023-04-24T09:51:38;18.90;99.90
66920;DHT22;53831;52.090;17.026;2023-04-24T09:53:40;18.70;99.90
66920;DHT22;53831;52.090;17.026;2023-04-24T09:55:45;18.60;99.90
66920;DHT22;53831;52.090;17.026;2023-04-24T09:57:52;18.70;99.90
66920;DHT22;53831;52.090;17.026;2023-04-24T09:59:49;18.60;99.90
66920;DHT22;53831;52.090;17.026;2023-04-24T10:01:51;18.60;99.90
66920;DHT22;53831;52.090;17.026;2023-04-24T10:03:52;18.50;99.90